Time;durP1;ratioP1;P1;durP2;ratioP2;P2;SDS_P1;SDS_P2;PMS_P1;PMS_P2;Temp;Humidity;BMP_temperature;BMP_pressure;BME280_temperature;BME280_humidity;BME280_pressure;Samples;Min_cycle;Max_cycle;Signal;HPM_P1;HPM_P2
2022/06/24 00:00:41;;;;;;;3.33;1.98;;;;;;;17.85;90.27;100061.94;5147908;28;20030;-75
2022/06/24 00:03:17;;;;;;;3.08;1.83;;;;;;;17.88;90.49;100059.09;5136980;28;20369;-74
2022/06/24 00:05:48;;;;;;;2.85;2.08;;;;;;;17.89;89.84;100044.94;5142683;28;20490;-74
2022/06/24 00:08:18;;;;;;;2.60;2.08;;;;;;;17.59;91.91;100047.16;5141300;28;20149;-74
2022/06/24 00:10:48;;;;;;;4.05;1.90;;;;;;;17.85;90.15;100040.81;5142358;28;20476;-74
2022/06/24 00:13:19;;;;;;;3.40;2.10;;;;;;;17.71;90.20;100030.41;5142068;28;20146;-74
2022/06/24 00:15:50;;;;;;;2.30;1.90;;;;;;;17.73;90.17;100035.56;5142179;28;20019;-74
2022/06/24 00:18:20;;;;;;;2.85;1.50;;;;;;;17.43;91.69;100024.59;5144793;28;20019;-74
2022/06/24 00:20:51;;;;;;;4.00;1.80;;;;;;;17.64;89.45;100028.34;5145187;28;20448;-74
2022/06/24 00:23:22;;;;;;;4.00;2.15;;;;;;;17.76;89.09;100024.78;5141966;28;20416;-74
2022/06/24 00:25:53;;;;;;;2.72;1.73;;;;;;;17.80;88.19;100021.81;5142108;28;20030;-74
2022/06/24 00:28:26;;;;;;;3.28;1.90;;;;;;;17.58;88.51;100028.75;5130781;28;20022;-74
2022/06/24 00:30:57;;;;;;;5.40;1.80;;;;;;;17.76;86.05;100016.84;5141614;28;20023;-74
2022/06/24 00:33:33;;;;;;;5.15;1.88;;;;;;;17.80;86.23;100023.63;5142111;28;20031;-72
2022/06/24 00:36:06;;;;;;;3.35;1.55;;;;;;;17.76;85.51;100032.69;5141985;28;20089;-72
2022/06/24 00:38:37;;;;;;;4.72;1.77;;;;;;;17.60;86.62;100022.44;5148388;28;20027;-73
2022/06/24 00:41:14;;;;;;;3.88;1.70;;;;;;;17.70;85.33;100015.53;5142158;28;20384;-74
2022/06/24 00:43:49;;;;;;;2.92;1.65;;;;;;;17.68;85.77;100017.41;5137168;28;20030;-74
2022/06/24 00:46:26;;;;;;;4.75;1.90;;;;;;;17.79;85.54;100016.66;5142164;28;20037;-74
2022/06/24 00:48:59;;;;;;;3.38;1.52;;;;;;;17.83;85.00;100018.94;5143861;28;20515;-74
2022/06/24 00:51:33;;;;;;;3.08;1.80;;;;;;;17.95;84.21;100023.31;5142358;28;20050;-74
2022/06/24 00:54:09;;;;;;;4.10;1.80;;;;;;;17.88;84.73;100013.31;5141621;28;20117;-74
2022/06/24 00:56:40;;;;;;;;;;;;;;;18.09;83.27;100019.63;5141218;28;20031;-74
2022/06/24 00:59:10;;;;;;;3.63;1.98;;;;;;;18.13;82.83;100013.16;5141328;28;20303;-73
2022/06/24 01:01:43;;;;;;;2.72;1.60;;;;;;;18.08;84.37;100005.59;5140600;28;20089;-74
2022/06/24 01:04:13;;;;;;;3.42;1.90;;;;;;;18.14;82.79;100006.94;5141814;28;20038;-74
2022/06/24 01:06:44;;;;;;;3.15;1.80;;;;;;;18.31;81.67;100007.34;5141009;28;20030;-74
2022/06/24 01:09:19;;;;;;;4.38;1.88;;;;;;;18.35;81.40;99997.38;5124310;28;20293;-74
2022/06/24 01:11:50;;;;;;;6.68;1.80;;;;;;;18.48;81.55;99990.19;5141998;28;20057;-74
2022/06/24 01:14:20;;;;;;;3.63;2.00;;;;;;;18.51;81.52;99996.06;5141722;28;20508;-74
2022/06/24 01:16:51;;;;;;;4.63;1.95;;;;;;;18.52;81.61;99989.81;5140857;28;20033;-74
2022/06/24 01:19:21;;;;;;;2.55;1.65;;;;;;;18.63;81.40;99986.34;5149746;28;20473;-75
2022/06/24 01:21:51;;;;;;;3.15;2.00;;;;;;;18.85;78.77;99973.94;5155472;28;20753;-74
2022/06/24 01:24:24;;;;;;;3.70;2.05;;;;;;;19.11;76.48;99976.22;5141114;28;20026;-75
2022/06/24 01:26:58;;;;;;;6.90;1.83;;;;;;;19.12;77.94;99969.97;5141150;28;20054;-74
2022/06/24 01:29:28;;;;;;;3.92;2.20;;;;;;;19.46;74.83;99961.00;5153334;28;20034;-74
2022/06/24 01:31:59;;;;;;;4.07;2.10;;;;;;;19.58;74.47;99949.41;5151229;28;20500;-74
2022/06/24 01:34:29;;;;;;;3.33;2.05;;;;;;;19.90;72.50;99960.84;5139622;28;20054;-74
2022/06/24 01:37:00;;;;;;;6.93;2.45;;;;;;;20.07;72.63;99947.03;5140975;28;20508;-74
2022/06/24 01:39:31;;;;;;;4.05;2.17;;;;;;;20.08;73.50;99951.38;5140986;28;20039;-74
2022/06/24 01:42:01;;;;;;;4.18;1.98;;;;;;;20.26;72.05;99949.81;5141061;28;20489;-74
2022/06/24 01:44:32;;;;;;;5.35;2.03;;;;;;;20.21;73.14;99938.75;5141041;28;20027;-74
2022/06/24 01:47:02;;;;;;;3.97;2.00;;;;;;;20.22;73.82;99945.75;5140612;28;20030;-74
2022/06/24 01:49:33;;;;;;;4.55;2.05;;;;;;;20.09;75.09;99939.78;5145380;28;20558;-74
2022/06/24 01:52:03;;;;;;;4.47;2.10;;;;;;;19.90;75.95;99944.06;5145324;28;20030;-74
2022/06/24 01:54:34;;;;;;;6.05;1.90;;;;;;;19.77;76.04;99940.78;5140786;28;20023;-74
2022/06/24 01:57:04;;;;;;;6.03;2.30;;;;;;;19.61;77.03;99938.53;5139232;28;20035;-73
2022/06/24 01:59:35;;;;;;;4.85;1.95;;;;;;;19.63;76.30;99936.59;5154062;28;20118;-75
2022/06/24 02:02:05;;;;;;;3.92;2.08;;;;;;;19.54;76.45;99926.75;5141611;28;20031;-74
2022/06/24 02:04:35;;;;;;;3.42;2.08;;;;;;;19.44;76.59;99939.06;5140870;28;20023;-74
2022/06/24 02:07:06;;;;;;;4.35;2.00;;;;;;;19.50;76.19;99925.34;5140626;28;20050;-75
2022/06/24 02:13:26;;;;;;;6.07;2.28;;;;;;;19.40;76.86;99926.19;5140708;28;20420;-74
2022/06/24 02:15:15;;;;;;;5.63;2.55;;;;;;;19.42;77.01;99922.47;5139979;28;20101;-74
2022/06/24 02:17:46;;;;;;;5.28;2.28;;;;;;;19.44;75.85;99917.06;5139800;28;20022;-74
2022/06/24 02:20:16;;;;;;;4.38;2.35;;;;;;;19.55;75.66;99912.53;5146302;28;20476;-73
2022/06/24 02:22:47;;;;;;;5.22;2.10;;;;;;;19.40;77.26;99908.50;5158173;28;20042;-74
2022/06/24 02:25:17;;;;;;;4.90;2.28;;;;;;;19.16;78.59;99917.56;5140132;28;20291;-74
2022/06/24 02:27:48;;;;;;;4.47;2.20;;;;;;;19.23;77.12;99918.78;5142991;28;20034;-74
2022/06/24 02:30:18;;;;;;;3.08;2.05;;;;;;;19.25;76.92;99919.53;5146974;28;20102;-74
2022/06/24 02:32:48;;;;;;;4.60;2.50;;;;;;;19.20;77.29;99917.25;5140193;28;20039;-74
2022/06/24 02:35:19;;;;;;;4.10;2.33;;;;;;;19.15;77.33;99914.09;5138135;28;20122;-73
2022/06/24 02:37:49;;;;;;;4.82;2.25;;;;;;;19.08;77.84;99907.59;5140083;28;20106;-75
2022/06/24 02:43:16;;;;;;;3.72;2.40;;;;;;;19.18;76.81;99897.13;5141392;28;20042;-74
2022/06/24 02:45:50;;;;;;;4.97;2.30;;;;;;;19.24;76.84;99896.66;5137365;28;20034;-74
2022/06/24 02:48:21;;;;;;;4.60;2.40;;;;;;;19.14;77.98;99900.97;5140755;28;20035;-74
2022/06/24 02:50:58;;;;;;;5.70;2.40;;;;;;;19.17;77.32;99893.66;5149944;28;20077;-74
2022/06/24 02:53:29;;;;;;;4.45;2.45;;;;;;;19.05;78.58;99893.75;5138811;28;20377;-75
2022/06/24 02:56:05;;;;;;;4.38;2.67;;;;;;;19.11;77.69;99886.16;5140592;28;20034;-74
2022/06/24 02:58:35;;;;;;;4.82;2.50;;;;;;;19.11;77.75;99887.97;5139946;28;20027;-74
2022/06/24 03:01:06;;;;;;;4.40;2.45;;;;;;;19.08;77.45;99891.69;5139896;28;20038;-75
2022/06/24 03:03:37;;;;;;;4.82;2.70;;;;;;;19.05;77.92;99881.34;5138857;28;20027;-74
2022/06/24 03:06:08;;;;;;;5.43;2.28;;;;;;;19.23;77.35;99887.84;5140030;28;20019;-74
2022/06/24 03:08:39;;;;;;;3.35;2.30;;;;;;;19.16;77.85;99891.97;5137969;28;20031;-74
2022/06/24 03:11:11;;;;;;;5.05;2.47;;;;;;;19.18;77.23;99875.94;5138351;28;20011;-74
2022/06/24 03:13:41;;;;;;;6.80;2.60;;;;;;;19.12;77.61;99881.69;5135793;28;20207;-74
2022/06/24 03:16:12;;;;;;;3.88;2.40;;;;;;;19.28;75.71;99872.41;5139793;28;20029;-73
2022/06/24 03:18:42;;;;;;;5.35;2.78;;;;;;;19.32;76.30;99873.00;5144061;28;20400;-75
2022/06/24 03:21:13;;;;;;;4.80;2.40;;;;;;;19.29;77.12;99862.66;5147832;28;20110;-74
2022/06/24 03:23:43;;;;;;;11.20;2.58;;;;;;;19.30;76.55;99867.81;5140401;28;20132;-74
2022/06/24 03:26:14;;;;;;;3.17;2.33;;;;;;;19.28;76.78;99859.16;5140188;28;20037;-74
2022/06/24 03:28:44;;;;;;;5.47;2.40;;;;;;;19.44;76.42;99861.38;5140414;28;20559;-74
2022/06/24 03:31:14;;;;;;;9.25;2.80;;;;;;;19.45;76.17;99863.88;5140854;28;20380;-74
2022/06/24 03:33:45;;;;;;;5.68;2.60;;;;;;;19.57;75.66;99859.38;5141769;28;20026;-75
2022/06/24 03:36:15;;;;;;;4.35;2.33;;;;;;;19.52;76.70;99851.81;5143475;28;20023;-74
2022/06/24 03:38:45;;;;;;;3.50;2.22;;;;;;;19.66;76.36;99853.31;5144302;28;20030;-75
2022/06/24 03:41:16;;;;;;;5.68;2.83;;;;;;;19.57;77.30;99854.06;5154622;28;20121;-74
2022/06/24 03:43:46;;;;;;;4.63;2.85;;;;;;;19.55;77.65;99840.97;5142849;28;20051;-74
2022/06/24 03:46:16;;;;;;;4.18;2.50;;;;;;;19.55;77.79;99838.31;5142701;28;20026;-74
2022/06/24 03:48:47;;;;;;;3.53;2.10;;;;;;;19.74;76.24;99840.22;5141221;28;20026;-75
2022/06/24 03:51:17;;;;;;;4.20;2.25;;;;;;;19.79;76.14;99833.56;5143359;28;20027;-74
2022/06/24 03:53:47;;;;;;;7.35;2.20;;;;;;;19.84;76.13;99833.19;5143171;28;20031;-75
2022/06/24 03:56:17;;;;;;;5.78;2.47;;;;;;;19.64;77.83;99831.41;5143081;28;20472;-74
2022/06/24 03:58:48;;;;;;;4.03;2.10;;;;;;;19.61;78.19;99832.47;5142906;28;20149;-74
2022/06/24 04:01:18;;;;;;;4.45;2.42;;;;;;;19.82;77.86;99832.50;5141589;28;20062;-74
2022/06/24 04:03:48;;;;;;;6.30;2.45;;;;;;;19.76;78.07;99833.84;5142023;28;20118;-74
2022/06/24 04:06:19;;;;;;;3.90;2.30;;;;;;;19.77;78.60;99838.16;5142590;28;20080;-74
2022/06/24 04:08:51;;;;;;;6.05;2.30;;;;;;;19.69;78.49;99829.19;5141221;28;20088;-75
2022/06/24 04:11:22;;;;;;;8.95;2.42;;;;;;;19.71;78.20;99828.09;5141826;28;20023;-75
2022/06/24 04:13:52;;;;;;;6.07;2.40;;;;;;;19.66;78.83;99825.00;5142316;28;20124;-74
2022/06/24 04:16:22;;;;;;;5.25;2.08;;;;;;;19.68;78.50;99824.84;5143078;28;20023;-74
2022/06/24 04:18:53;;;;;;;4.00;2.50;;;;;;;19.75;78.18;99824.22;5146149;28;20037;-74
2022/06/24 04:21:23;;;;;;;3.83;1.95;;;;;;;19.70;78.82;99826.41;5141268;28;20381;-74
2022/06/24 04:23:54;;;;;;;7.28;2.60;;;;;;;19.70;79.52;99823.75;5141283;28;20515;-74
2022/06/24 04:26:24;;;;;;;4.82;2.25;;;;;;;19.78;78.13;99813.34;5141215;28;20121;-74
2022/06/24 04:28:54;;;;;;;4.53;2.00;;;;;;;19.98;77.98;99815.13;5142036;28;20037;-74
2022/06/24 04:31:25;;;;;;;5.07;2.33;;;;;;;19.88;78.79;99813.38;5142217;28;20491;-74
2022/06/24 04:33:55;;;;;;;4.45;2.35;;;;;;;19.92;78.00;99813.00;5142080;28;20038;-74
2022/06/24 04:36:25;;;;;;;6.80;2.45;;;;;;;20.12;77.57;99816.63;5142241;28;20027;-74
2022/06/24 04:38:55;;;;;;;5.30;2.58;;;;;;;20.15;78.99;99811.88;5140287;28;20398;-74
2022/06/24 04:41:26;;;;;;;4.60;2.30;;;;;;;20.53;77.71;99812.03;5147018;28;20034;-74
2022/06/24 04:43:57;;;;;;;3.92;2.10;;;;;;;21.67;73.43;99806.84;5145824;28;20061;-74
2022/06/24 04:46:27;;;;;;;4.50;2.15;;;;;;;21.48;74.77;99810.34;5140891;28;20546;-74
2022/06/24 04:48:57;;;;;;;3.58;1.92;;;;;;;22.88;70.21;99798.47;5144306;28;20592;-75
2022/06/24 04:51:28;;;;;;;5.57;2.20;;;;;;;24.16;66.62;99791.56;5153474;28;20046;-75
2022/06/24 04:53:58;;;;;;;4.35;1.80;;;;;;;24.67;64.78;99796.81;5141996;28;20086;-75
2022/06/24 04:56:28;;;;;;;5.47;1.88;;;;;;;25.21;64.00;99791.78;5141775;28;20175;-74
2022/06/24 04:58:59;;;;;;;6.43;2.03;;;;;;;26.22;61.50;99797.41;5140657;28;20113;-75
2022/06/24 05:01:29;;;;;;;3.08;1.90;;;;;;;26.47;61.27;99795.44;5139130;28;20228;-75
2022/06/24 05:04:01;;;;;;;6.07;1.92;;;;;;;27.92;57.72;99795.16;5142139;28;20109;-75
2022/06/24 05:06:32;;;;;;;4.00;1.85;;;;;;;27.20;59.92;99797.59;5142511;28;20038;-73
2022/06/24 05:09:02;;;;;;;3.92;1.98;;;;;;;27.24;60.13;99796.25;5140748;28;20046;-74
2022/06/24 05:11:34;;;;;;;4.35;1.88;;;;;;;28.10;58.51;99805.56;5140953;28;20035;-74
2022/06/24 05:14:04;;;;;;;4.03;2.00;;;;;;;28.09;58.19;99801.22;5141789;28;20030;-75
2022/06/24 05:16:34;;;;;;;2.90;1.75;;;;;;;28.12;57.68;99815.09;5141478;28;20508;-72
2022/06/24 05:19:05;;;;;;;3.58;1.80;;;;;;;28.30;57.21;99806.69;5143963;28;20022;-74
2022/06/24 05:21:35;;;;;;;4.70;1.85;;;;;;;28.40;57.67;99813.47;5144531;28;20027;-75
2022/06/24 05:24:06;;;;;;;3.08;1.80;;;;;;;29.54;55.55;99807.22;5139583;28;20053;-75
2022/06/24 05:26:37;;;;;;;3.38;1.70;;;;;;;28.11;57.84;99818.00;5140494;28;20030;-74
2022/06/24 05:29:08;;;;;;;2.88;1.67;;;;;;;27.80;57.59;99826.16;5140545;28;20457;-74
2022/06/24 05:31:38;;;;;;;3.15;1.55;;;;;;;26.61;59.55;99824.25;5140948;28;20485;-74
2022/06/24 05:34:09;;;;;;;2.47;1.73;;;;;;;25.91;60.71;99819.72;5141295;28;20054;-74
2022/06/24 05:36:40;;;;;;;3.67;1.67;;;;;;;26.98;58.77;99811.81;5140505;28;20548;-74
2022/06/24 05:39:10;;;;;;;6.68;2.00;;;;;;;27.69;57.03;99818.53;5139984;28;20416;-74
2022/06/24 05:41:43;;;;;;;6.55;1.75;;;;;;;27.17;57.35;99822.97;5140688;28;20033;-74
2022/06/24 05:44:13;;;;;;;3.97;1.80;;;;;;;27.67;57.92;99817.03;5138458;28;20084;-74
2022/06/24 05:46:43;;;;;;;4.95;2.08;;;;;;;27.54;58.31;99814.13;5139136;28;20031;-74
2022/06/24 05:49:14;;;;;;;3.67;1.70;;;;;;;26.65;60.13;99820.22;5141510;28;20029;-74
2022/06/24 05:51:44;;;;;;;3.58;1.80;;;;;;;26.50;60.18;99819.28;5145561;28;20027;-74
2022/06/24 05:57:04;;;;;;;5.55;2.00;;;;;;;26.06;60.80;99815.34;5139830;28;20169;-74
2022/06/24 05:59:37;;;;;;;5.47;2.00;;;;;;;25.75;62.04;99814.34;5141423;28;20026;-74
2022/06/24 06:02:08;;;;;;;3.13;1.70;;;;;;;25.78;61.98;99814.00;5141362;28;20057;-75
2022/06/24 06:04:38;;;;;;;4.18;1.98;;;;;;;25.31;62.57;99815.72;5140358;28;20062;-74
2022/06/24 06:07:08;;;;;;;2.42;1.80;;;;;;;25.96;61.26;99812.00;5138747;28;20035;-75
2022/06/24 06:09:39;;;;;;;7.13;2.45;;;;;;;25.92;61.26;99810.69;5139791;28;20061;-72
2022/06/24 06:12:09;;;;;;;4.15;2.03;;;;;;;25.94;61.84;99814.03;5140298;28;20035;-74
2022/06/24 06:14:40;;;;;;;3.45;1.90;;;;;;;25.34;63.49;99815.38;5140073;28;20085;-74
2022/06/24 06:17:11;;;;;;;3.45;1.77;;;;;;;25.96;63.80;99802.13;5139679;28;20022;-73
2022/06/24 06:19:41;;;;;;;3.17;2.00;;;;;;;26.47;60.99;99798.13;5141815;28;20089;-74
2022/06/24 06:22:12;;;;;;;3.08;1.88;;;;;;;27.08;59.23;99797.16;5142772;28;20054;-74
2022/06/24 06:24:43;;;;;;;3.95;2.00;;;;;;;26.90;59.17;99801.97;5140134;28;20109;-76
2022/06/24 06:27:13;;;;;;;5.70;2.10;;;;;;;26.74;61.19;99799.38;5138906;28;20416;-75
2022/06/24 06:29:44;;;;;;;3.47;2.00;;;;;;;27.21;60.49;99801.97;5140307;28;20055;-75
2022/06/24 06:32:14;;;;;;;6.82;1.98;;;;;;;27.10;61.45;99797.03;5140159;28;20382;-75
2022/06/24 06:34:44;;;;;;;7.10;1.80;;;;;;;27.38;59.91;99793.63;5166727;23;20057;-74
2022/06/24 06:37:15;;;;;;;4.63;1.85;;;;;;;27.76;58.70;99792.63;5156730;28;20030;-71
2022/06/24 06:39:45;;;;;;;4.00;1.75;;;;;;;27.79;58.80;99796.81;5158273;28;20100;-73
2022/06/24 06:42:16;;;;;;;5.78;2.05;;;;;;;27.67;58.68;99788.34;5158413;28;20038;-73
2022/06/24 06:44:46;;;;;;;4.93;2.00;;;;;;;27.73;58.66;99787.63;5159716;28;20031;-73
2022/06/24 06:47:17;;;;;;;4.03;2.17;;;;;;;28.10;58.44;99790.25;5159645;28;20542;-73
2022/06/24 06:49:47;;;;;;;3.50;1.70;;;;;;;28.25;57.81;99785.72;5159086;28;20068;-73
2022/06/24 06:52:17;;;;;;;3.08;1.77;;;;;;;28.00;58.38;99784.34;5150495;28;20029;-73
2022/06/24 06:54:48;;;;;;;4.40;1.80;;;;;;;27.96;58.64;99787.59;5159530;28;20023;-74
2022/06/24 06:57:18;;;;;;;3.60;1.80;;;;;;;28.23;58.64;99777.03;5159052;28;20688;-73
2022/06/24 06:59:49;;;;;;;5.20;2.28;;;;;;;28.82;58.41;99770.53;5158838;28;20130;-73
2022/06/24 07:02:19;;;;;;;4.72;2.00;;;;;;;28.74;57.79;99773.38;5159567;28;20026;-74
2022/06/24 07:04:50;;;;;;;4.28;1.90;;;;;;;29.02;57.50;99771.63;5159101;28;20038;-73
2022/06/24 07:07:20;;;;;;;4.60;2.10;;;;;;;29.41;57.09;99772.03;5158870;28;20023;-71
2022/06/24 07:09:51;;;;;;;3.00;1.95;;;;;;;29.71;58.68;99769.00;5161330;28;20018;-71
2022/06/24 07:12:21;;;;;;;5.90;2.25;;;;;;;29.51;57.02;99759.94;5163256;28;20033;-71
2022/06/24 07:14:52;;;;;;;5.53;2.17;;;;;;;30.28;55.45;99760.69;5163138;28;20559;-71
2022/06/24 07:17:23;;;;;;;3.72;2.00;;;;;;;30.32;55.46;99762.78;5162025;28;20045;-71
2022/06/24 07:19:53;;;;;;;3.97;1.98;;;;;;;30.70;55.23;99758.63;5162807;28;20283;-71
2022/06/24 07:22:23;;;;;;;4.68;2.15;;;;;;;30.87;54.80;99749.94;5163044;28;20555;-71
2022/06/24 07:24:54;;;;;;;6.15;2.10;;;;;;;30.75;55.55;99748.03;5163634;28;20457;-71
2022/06/24 07:27:24;;;;;;;4.95;1.98;;;;;;;30.37;55.37;99749.53;5162383;28;20088;-71
2022/06/24 07:29:56;;;;;;;6.47;2.30;;;;;;;31.42;53.55;99744.25;5161870;28;20034;-71
2022/06/24 07:32:26;;;;;;;3.65;2.08;;;;;;;31.54;53.22;99741.75;5163336;28;20027;-71
2022/06/24 07:34:56;;;;;;;3.15;1.85;;;;;;;32.01;53.77;99742.34;5163214;28;20461;-71
2022/06/24 07:37:27;;;;;;;6.25;2.20;;;;;;;32.82;51.75;99747.09;5162592;28;20026;-71
2022/06/24 07:39:57;;;;;;;5.30;2.07;;;;;;;32.60;54.42;99740.31;5162574;28;20084;-71
2022/06/24 07:42:27;;;;;;;4.22;2.25;;;;;;;32.29;55.58;99751.06;5162288;28;20627;-71
2022/06/24 07:44:58;;;;;;;4.30;2.03;;;;;;;32.06;56.45;99742.53;5157707;28;20026;-71
2022/06/24 07:47:28;;;;;;;3.22;2.13;;;;;;;32.53;53.75;99741.38;5162385;28;20273;-71
2022/06/24 07:49:58;;;;;;;4.32;2.17;;;;;;;32.51;52.91;99744.31;5162395;28;20085;-71
2022/06/24 07:52:29;;;;;;;5.63;2.05;;;;;;;32.33;53.78;99749.56;5162068;28;20612;-71
2022/06/24 07:57:48;;;;;;;4.47;2.00;;;;;;;32.34;53.52;99751.25;5159153;28;20049;-71
2022/06/24 08:00:18;;;;;;;5.10;2.30;;;;;;;32.35;54.64;99747.47;5162351;28;20026;-71
2022/06/24 08:02:49;;;;;;;6.45;2.13;;;;;;;32.29;56.08;99747.50;5162288;28;20763;-71
2022/06/24 08:05:19;;;;;;;3.08;2.00;;;;;;;32.66;55.23;99758.41;5162147;28;20026;-71
2022/06/24 08:07:49;;;;;;;5.38;2.25;;;;;;;32.16;55.38;99759.16;5160689;28;20037;-71
2022/06/24 08:10:20;;;;;;;5.40;2.10;;;;;;;32.27;55.70;99763.13;5162190;28;20049;-71
2022/06/24 08:12:50;;;;;;;5.85;2.33;;;;;;;32.94;55.21;99759.72;5162254;28;20277;-71
2022/06/24 08:15:20;;;;;;;5.03;1.80;;;;;;;33.69;53.50;99767.78;5161589;28;20388;-71
2022/06/24 08:17:51;;;;;;;6.57;2.20;;;;;;;33.14;54.07;99762.34;5161768;28;20305;-71
2022/06/24 08:20:21;;;;;;;5.00;2.10;;;;;;;33.80;52.30;99758.94;5160458;28;20030;-71
2022/06/24 08:22:52;;;;;;;4.20;2.10;;;;;;;33.82;51.86;99762.25;5162296;28;20277;-71
2022/06/24 08:25:22;;;;;;;5.97;2.20;;;;;;;33.70;52.28;99757.78;5162062;28;20026;-71
2022/06/24 08:27:52;;;;;;;5.40;2.40;;;;;;;33.25;52.67;99754.34;5161358;28;20436;-71
2022/06/24 08:30:23;;;;;;;6.03;2.50;;;;;;;33.33;52.70;99750.56;5161896;28;20101;-71
2022/06/24 08:32:53;;;;;;;5.43;2.65;;;;;;;33.72;53.31;99753.81;5162418;28;20041;-71
2022/06/24 08:35:23;;;;;;;6.40;2.13;;;;;;;34.29;52.04;99742.59;5161657;28;20056;-71
2022/06/24 08:37:55;;;;;;;3.28;2.00;;;;;;;34.48;52.33;99737.97;5161580;28;20281;-71
2022/06/24 08:40:28;;;;;;;5.35;2.20;;;;;;;33.80;51.97;99736.41;5160732;28;20528;-71
2022/06/24 08:43:00;;;;;;;3.92;2.35;;;;;;;35.31;49.16;99730.53;5162055;28;20038;-71
2022/06/24 08:45:30;;;;;;;4.45;1.90;;;;;;;36.27;49.73;99729.06;5161446;28;20246;-71
2022/06/24 08:48:01;;;;;;;5.80;2.22;;;;;;;35.99;47.62;99728.94;5160391;28;20032;-71
2022/06/24 08:50:31;;;;;;;6.13;2.38;;;;;;;34.82;49.50;99726.50;5160902;28;20039;-71
2022/06/24 08:53:07;;;;;;;3.87;2.37;;;;;;;33.18;52.30;99731.84;5151722;28;20030;-72
2022/06/24 08:55:40;;;;;;;4.35;1.70;;;;;;;34.28;51.83;99721.94;5161115;28;20285;-71
2022/06/24 08:58:12;;;;;;;3.33;2.13;;;;;;;35.51;50.31;99709.31;5160921;28;20030;-71
2022/06/24 09:00:43;;;;;;;5.88;2.33;;;;;;;35.01;50.43;99698.19;5156926;28;20089;-71
2022/06/24 09:03:13;;;;;;;5.80;2.13;;;;;;;36.99;46.42;99712.00;5158901;28;20022;-71
2022/06/24 09:05:44;;;;;;;7.70;2.22;;;;;;;36.24;47.91;99706.91;5160568;28;20031;-71
2022/06/24 09:08:15;;;;;;;8.50;2.40;;;;;;;33.80;50.33;99707.41;5150844;28;20026;-71
2022/06/24 09:13:44;;;;;;;6.63;2.22;;;;;;;32.07;54.41;99703.63;5159198;28;20037;-71
2022/06/24 09:16:20;;;;;;;4.70;2.55;;;;;;;31.73;55.42;99701.22;5156868;28;20026;-71
2022/06/24 09:18:59;;;;;;;4.65;2.38;;;;;;;31.77;57.00;99704.34;5160020;28;20093;-71
2022/06/24 09:21:34;;;;;;;4.18;2.15;;;;;;;31.90;56.39;99707.81;5160205;28;20429;-71
2022/06/24 09:24:04;;;;;;;5.88;2.65;;;;;;;33.07;53.50;99701.91;5160594;28;20444;-71
2022/06/24 09:26:38;;;;;;;4.85;2.50;;;;;;;32.80;55.22;99692.34;5160100;28;20068;-71
2022/06/24 09:29:14;;;;;;;4.28;2.13;;;;;;;32.73;56.85;99696.94;5159891;28;20057;-71
2022/06/24 09:31:44;;;;;;;;;;;;;;;32.09;57.37;99698.00;5155829;28;20121;-71
2022/06/24 09:34:18;;;;;;;5.07;2.70;;;;;;;30.83;59.48;99697.41;5160091;28;20005;-71
2022/06/24 09:36:48;;;;;;;6.13;2.42;;;;;;;31.38;60.04;99691.66;5158991;28;20072;-70
2022/06/24 09:39:18;;;;;;;5.00;2.38;;;;;;;30.91;60.07;99686.44;5158972;28;20022;-71
2022/06/24 09:41:53;;;;;;;7.13;2.80;;;;;;;31.53;56.65;99689.56;5160080;28;20026;-71
2022/06/24 09:44:24;;;;;;;4.05;2.40;;;;;;;31.01;59.41;99689.53;5160140;28;20073;-70
2022/06/24 09:47:03;;;;;;;8.95;2.58;;;;;;;32.04;58.22;99687.00;5160238;28;20733;-71
2022/06/24 09:49:33;;;;;;;6.18;2.45;;;;;;;32.83;57.17;99691.91;5159389;28;20045;-70
2022/06/24 09:52:04;;;;;;;7.13;2.33;;;;;;;33.72;55.87;99679.72;5159527;28;20029;-71
2022/06/24 09:54:35;;;;;;;10.68;2.40;;;;;;;32.86;55.59;99679.81;5159156;28;20273;-71
2022/06/24 09:57:07;;;;;;;6.97;2.30;;;;;;;32.98;55.99;99692.41;5158634;28;20030;-71
2022/06/24 10:02:29;;;;;;;5.13;2.10;;;;;;;32.28;56.07;99695.28;5156162;28;20057;-71
2022/06/24 10:05:02;;;;;;;5.57;2.10;;;;;;;31.97;57.77;99695.16;5157481;28;20032;-71
2022/06/24 10:07:34;;;;;;;6.50;2.20;;;;;;;31.25;58.80;99694.38;5157377;28;20112;-71
2022/06/24 10:10:06;;;;;;;5.32;2.15;;;;;;;31.17;58.42;99699.97;5156963;28;20358;-71
2022/06/24 10:12:41;;;;;;;9.82;2.47;;;;;;;30.75;59.16;99704.03;5157728;28;20128;-71
2022/06/24 10:15:13;;;;;;;7.23;2.40;;;;;;;31.91;58.20;99708.69;5159526;28;20026;-71
2022/06/24 10:17:45;;;;;;;9.75;2.20;;;;;;;31.17;58.42;99702.66;5155433;28;20181;-71
2022/06/24 10:20:16;;;;;;;13.43;2.40;;;;;;;31.47;58.73;99709.31;5149714;28;20411;-70
2022/06/24 10:22:50;;;;;;;6.43;1.90;;;;;;;31.14;58.54;99713.91;5159240;28;20022;-71
2022/06/24 10:25:42;;;;;;;6.15;2.17;;;;;;;30.47;59.24;99717.63;5159358;28;20030;-71
2022/06/24 10:28:12;;;;;;;9.30;2.20;;;;;;;29.98;60.70;99716.09;5154836;28;20447;-70
2022/06/24 10:30:45;;;;;;;6.28;1.92;;;;;;;29.61;62.01;99711.09;5159440;28;20065;-73
2022/06/24 10:33:21;;;;;;;7.53;2.15;;;;;;;29.39;62.05;99709.44;5159510;28;20030;-73
2022/06/24 10:35:55;;;;;;;7.03;2.03;;;;;;;29.36;63.14;99712.50;5159759;28;20079;-73
2022/06/24 10:38:35;;;;;;;7.28;2.08;;;;;;;30.03;62.77;99711.81;5158602;28;20431;-73
2022/06/24 10:41:08;;;;;;;7.28;1.70;;;;;;;30.28;63.14;99725.63;5158228;28;20089;-73
2022/06/24 10:43:41;;;;;;;4.53;1.52;;;;;;;29.81;63.21;99726.38;5157203;28;20031;-71
2022/06/24 10:46:11;;;;;;;5.45;1.48;;;;;;;29.91;63.93;99721.44;5158715;28;20050;-72
2022/06/24 10:48:44;;;;;;;4.97;1.73;;;;;;;29.90;64.72;99730.56;5158521;28;20030;-72
2022/06/24 10:51:19;;;;;;;5.65;1.83;;;;;;;29.20;65.33;99737.84;5155241;28;20022;-73
2022/06/24 10:54:02;;;;;;;3.85;1.70;;;;;;;29.06;68.15;99737.94;5158173;28;20105;-72
2022/06/24 10:56:48;;;;;;;7.32;1.92;;;;;;;28.87;67.90;99746.63;5157415;28;20141;-72
2022/06/24 10:59:20;;;;;;;5.32;1.73;;;;;;;28.46;69.97;99750.88;5155402;28;20030;-72
2022/06/24 11:01:51;;;;;;;8.75;1.95;;;;;;;28.20;70.00;99752.34;5156781;28;20026;-72
2022/06/24 11:04:28;;;;;;;5.90;1.80;;;;;;;28.36;70.47;99757.56;5158437;28;20503;-71
2022/06/24 11:07:13;;;;;;;7.30;1.70;;;;;;;28.51;70.50;99756.50;5159974;28;20034;-71
2022/06/24 11:09:43;;;;;;;4.07;1.50;;;;;;;28.45;70.24;99751.06;5149789;28;20192;-71
2022/06/24 11:12:32;;;;;;;4.65;1.55;;;;;;;27.81;72.03;99751.78;5158203;28;20491;-71
2022/06/24 11:15:02;;;;;;;5.10;1.80;;;;;;;28.10;72.58;99752.63;5158737;28;20038;-71
2022/06/24 11:17:39;;;;;;;5.63;1.75;;;;;;;28.00;73.49;99762.00;5158470;28;20030;-71
2022/06/24 11:20:11;;;;;;;9.63;1.80;;;;;;;27.73;74.38;99773.34;5158350;28;20062;-71
2022/06/24 11:22:42;;;;;;;11.38;2.00;;;;;;;27.46;75.03;99782.78;5158300;28;20081;-71
2022/06/24 11:25:15;;;;;;;5.85;2.00;;;;;;;27.12;75.61;99762.78;5157263;28;20026;-71
2022/06/24 11:27:46;;;;;;;5.00;2.10;;;;;;;27.09;76.27;99777.34;5157745;28;20486;-71
2022/06/24 11:30:16;;;;;;;6.80;1.98;;;;;;;26.74;81.16;99763.69;5158540;28;20034;-71
2022/06/24 11:32:53;;;;;;;5.03;2.00;;;;;;;26.41;85.23;99774.69;5159184;28;20053;-71
2022/06/24 11:35:25;;;;;;;9.27;2.08;;;;;;;25.77;87.64;99775.69;5159175;28;20247;-71
2022/06/24 11:37:56;;;;;;;8.38;2.45;;;;;;;25.02;90.88;99784.06;5157372;28;20022;-71
2022/06/24 11:40:28;;;;;;;4.95;2.40;;;;;;;24.79;94.11;99792.84;5157620;28;20301;-70
2022/06/24 11:43:19;;;;;;;5.13;2.35;;;;;;;24.39;97.19;99803.34;5157926;28;20048;-71
2022/06/24 11:45:49;;;;;;;11.10;2.60;;;;;;;24.47;96.37;99805.22;5153640;28;20042;-71
2022/06/24 11:48:24;;;;;;;7.43;2.60;;;;;;;24.14;100.00;99800.72;5156782;28;20022;-71
2022/06/24 11:50:54;;;;;;;10.73;2.30;;;;;;;24.13;100.00;99796.38;5157690;28;20113;-71
2022/06/24 11:53:25;;;;;;;7.07;2.65;;;;;;;23.93;100.00;99800.25;5148564;28;20572;-71
2022/06/24 11:55:56;;;;;;;9.88;3.03;;;;;;;23.56;100.00;99797.81;5159677;28;20088;-70
2022/06/24 11:58:27;;;;;;;4.55;2.72;;;;;;;23.84;100.00;99790.56;5162226;28;20034;-71
2022/06/24 12:00:57;;;;;;;7.90;2.63;;;;;;;23.96;100.00;99786.59;5162761;28;20117;-71
2022/06/24 12:03:28;;;;;;;8.65;2.50;;;;;;;23.84;100.00;99780.69;5160863;28;20038;-71
2022/06/24 12:05:59;;;;;;;6.43;2.65;;;;;;;23.94;100.00;99786.78;5162535;28;20041;-71
2022/06/24 12:08:29;;;;;;;8.95;2.63;;;;;;;23.78;100.00;99781.31;5161461;28;20030;-71